createdAt,value
2018-11-13T00:00:44.201Z,99.90
2018-11-13T00:03:12.911Z,99.90
2018-11-13T00:05:41.763Z,99.90
2018-11-13T00:08:10.206Z,99.90
2018-11-13T00:10:39.168Z,99.90
2018-11-13T00:13:07.923Z,99.90
2018-11-13T00:15:36.844Z,99.90
2018-11-13T00:18:05.968Z,99.90
2018-11-13T00:20:34.718Z,99.90
2018-11-13T00:23:03.369Z,99.90
2018-11-13T00:25:32.126Z,99.90
2018-11-13T00:28:00.864Z,99.90
2018-11-13T00:30:29.627Z,99.90
2018-11-13T00:32:58.411Z,99.90
2018-11-13T00:35:27.085Z,99.90
2018-11-13T00:37:55.538Z,99.90
2018-11-13T00:40:24.277Z,99.90
2018-11-13T00:42:52.996Z,99.90
2018-11-13T00:45:21.772Z,99.90
2018-11-13T00:47:50.369Z,99.90
2018-11-13T00:50:20.203Z,99.90
2018-11-13T00:52:49.118Z,99.90
2018-11-13T00:55:17.762Z,99.90
2018-11-13T00:57:46.492Z,99.90
2018-11-13T01:00:16.984Z,99.90
2018-11-13T01:02:45.804Z,99.90
2018-11-13T01:05:15.775Z,99.90
2018-11-13T01:07:45.669Z,99.90
2018-11-13T01:10:15.319Z,99.90
2018-11-13T01:12:44.944Z,99.90
2018-11-13T01:15:14.887Z,99.90
2018-11-13T01:17:44.492Z,99.90
2018-11-13T01:20:13.886Z,99.90
2018-11-13T01:22:42.707Z,99.90
2018-11-13T01:25:12.536Z,99.90
2018-11-13T01:27:41.665Z,99.90
2018-11-13T01:30:11.616Z,99.90
2018-11-13T01:32:41.141Z,99.90
2018-11-13T01:35:11.919Z,99.90
2018-11-13T01:37:40.812Z,99.90
2018-11-13T01:40:10.994Z,99.90
2018-11-13T01:42:40.289Z,99.90
2018-11-13T01:45:10.752Z,99.90
2018-11-13T01:47:39.531Z,99.90
2018-11-13T01:50:08.780Z,99.90
2018-11-13T01:52:37.600Z,99.90
2018-11-13T01:55:08.087Z,99.90
2018-11-13T01:57:37.110Z,99.90
2018-11-13T02:00:13.873Z,99.90
2018-11-13T02:02:43.120Z,99.90
2018-11-13T02:05:11.840Z,99.90
2018-11-13T02:07:40.736Z,99.90
2018-11-13T02:10:09.229Z,99.90
2018-11-13T02:12:38.030Z,99.90
2018-11-13T02:15:07.458Z,99.90
2018-11-13T02:17:36.195Z,99.90
2018-11-13T02:20:06.266Z,99.90
2018-11-13T02:22:35.046Z,99.90
2018-11-13T02:25:03.895Z,99.90
2018-11-13T02:27:32.688Z,99.90
2018-11-13T02:30:01.309Z,99.90
2018-11-13T02:32:30.138Z,99.90
2018-11-13T02:34:58.854Z,99.90
2018-11-13T02:37:27.651Z,99.90
2018-11-13T02:39:56.454Z,99.90
2018-11-13T02:42:25.004Z,99.90
2018-11-13T02:44:53.687Z,99.90
2018-11-13T02:47:23.118Z,99.90
2018-11-13T02:49:52.136Z,99.90
2018-11-13T02:52:20.617Z,99.90
2018-11-13T02:54:49.465Z,99.90
2018-11-13T02:57:18.224Z,99.90
2018-11-13T02:59:47.029Z,99.90
2018-11-13T03:02:15.401Z,99.90
2018-11-13T03:04:44.296Z,99.90
2018-11-13T03:07:13.226Z,99.90
2018-11-13T03:09:41.923Z,99.90
2018-11-13T03:12:10.718Z,99.90
2018-11-13T03:14:39.356Z,99.90
2018-11-13T03:17:08.210Z,99.90
2018-11-13T03:19:36.909Z,99.90
2018-11-13T03:22:05.449Z,99.90
2018-11-13T03:24:34.242Z,99.90
2018-11-13T03:27:03.032Z,99.90
2018-11-13T03:29:31.784Z,99.90
2018-11-13T03:32:00.400Z,99.90
2018-11-13T03:34:29.209Z,99.90
2018-11-13T03:36:57.989Z,99.90
2018-11-13T03:39:26.458Z,99.90
2018-11-13T03:41:55.305Z,99.90
2018-11-13T03:44:24.009Z,99.90
2018-11-13T03:46:52.541Z,99.90
2018-11-13T03:49:21.298Z,99.90
2018-11-13T03:51:49.809Z,99.90
2018-11-13T03:54:18.640Z,99.90
2018-11-13T03:56:47.466Z,99.90
2018-11-13T03:59:16.188Z,99.90
2018-11-13T04:01:44.995Z,99.90
2018-11-13T04:04:14.832Z,99.90
2018-11-13T04:06:44.355Z,99.90
2018-11-13T04:09:14.331Z,99.90
2018-11-13T04:11:43.052Z,99.90
2018-11-13T04:14:11.745Z,99.90
2018-11-13T04:16:40.517Z,99.90
2018-11-13T04:19:09.151Z,99.90
2018-11-13T04:21:38.202Z,99.90
2018-11-13T04:24:06.831Z,99.90
2018-11-13T04:26:35.740Z,99.90
2018-11-13T04:29:04.501Z,99.90
2018-11-13T04:31:33.478Z,99.90
2018-11-13T04:34:02.243Z,99.90
2018-11-13T04:36:31.090Z,99.90
2018-11-13T04:38:59.821Z,99.90
2018-11-13T04:41:28.542Z,99.90
2018-11-13T04:43:57.282Z,99.90
2018-11-13T04:46:25.897Z,99.90
2018-11-13T04:48:54.661Z,99.90
2018-11-13T04:51:23.374Z,99.90
2018-11-13T04:53:51.769Z,99.90
2018-11-13T04:56:20.519Z,99.90
2018-11-13T04:58:49.315Z,99.90
2018-11-13T05:01:18.101Z,99.90
2018-11-13T05:03:46.833Z,99.90
2018-11-13T05:06:15.676Z,99.90
2018-11-13T05:08:44.573Z,99.90
2018-11-13T05:11:13.422Z,99.90
2018-11-13T05:13:41.866Z,99.90
2018-11-13T05:16:10.400Z,99.90
2018-11-13T05:18:39.189Z,99.90
2018-11-13T05:21:07.807Z,99.90
2018-11-13T05:23:36.686Z,99.90
2018-11-13T05:26:05.556Z,99.90
2018-11-13T05:28:34.298Z,99.90
2018-11-13T05:31:02.947Z,99.90
2018-11-13T05:33:31.650Z,99.90
2018-11-13T05:36:00.378Z,99.90
2018-11-13T05:38:28.984Z,99.90
2018-11-13T05:40:57.669Z,99.90
2018-11-13T05:43:26.749Z,99.90
2018-11-13T05:45:55.774Z,99.90
2018-11-13T05:48:24.506Z,99.90
2018-11-13T05:50:53.329Z,99.90
2018-11-13T05:53:22.097Z,99.90
2018-11-13T05:55:50.928Z,99.90
2018-11-13T05:58:19.670Z,99.90
2018-11-13T06:00:48.497Z,99.90
2018-11-13T06:03:17.261Z,99.90
2018-11-13T06:05:45.837Z,99.90
2018-11-13T06:08:17.189Z,99.90
2018-11-13T06:10:46.639Z,99.90
2018-11-13T06:13:15.382Z,99.90
2018-11-13T06:15:44.077Z,99.90
2018-11-13T06:18:13.073Z,99.90
2018-11-13T06:20:41.833Z,99.90
2018-11-13T06:23:10.437Z,99.90
2018-11-13T06:25:39.311Z,99.90
2018-11-13T06:28:07.915Z,99.90
2018-11-13T06:30:36.604Z,99.90
2018-11-13T06:33:05.585Z,99.90
2018-11-13T06:35:34.289Z,99.90
2018-11-13T06:38:04.101Z,99.90
2018-11-13T06:40:32.774Z,99.90
2018-11-13T06:43:01.576Z,99.90
2018-11-13T06:45:30.397Z,99.90
2018-11-13T06:47:59.305Z,99.90
2018-11-13T06:50:28.264Z,99.90
2018-11-13T06:52:57.057Z,99.90
2018-11-13T06:55:28.817Z,99.90
2018-11-13T06:57:57.633Z,99.90
2018-11-13T07:00:26.390Z,99.90
2018-11-13T07:02:55.241Z,99.90
2018-11-13T07:05:23.725Z,99.90
2018-11-13T07:07:52.564Z,99.90
2018-11-13T07:10:22.577Z,99.90
2018-11-13T07:12:51.965Z,99.90
2018-11-13T07:15:21.924Z,99.90
2018-11-13T07:17:51.755Z,99.90
2018-11-13T07:20:21.715Z,99.90
2018-11-13T07:22:50.450Z,99.90
2018-11-13T07:25:19.484Z,99.90
2018-11-13T07:27:48.286Z,99.90
2018-11-13T07:30:17.869Z,99.90
2018-11-13T07:32:46.697Z,99.90
2018-11-13T07:35:16.542Z,99.90
2018-11-13T07:38:00.520Z,99.90
2018-11-13T07:40:29.045Z,99.90
2018-11-13T07:42:58.011Z,99.90
2018-11-13T07:45:26.475Z,99.90
2018-11-13T07:47:55.341Z,99.90
2018-11-13T07:50:24.067Z,99.90
2018-11-13T07:52:52.738Z,99.90
2018-11-13T07:55:21.491Z,99.90
2018-11-13T07:57:50.372Z,99.90
2018-11-13T08:00:22.046Z,99.90
2018-11-13T08:02:51.979Z,99.90
2018-11-13T08:05:20.582Z,99.90
2018-11-13T08:07:49.388Z,99.90
2018-11-13T08:10:18.362Z,99.90
2018-11-13T08:12:47.239Z,99.90
2018-11-13T08:15:17.157Z,99.90
2018-11-13T08:17:46.133Z,99.90
2018-11-13T08:20:15.558Z,99.90
2018-11-13T08:22:44.538Z,99.90
2018-11-13T08:25:13.244Z,99.90
2018-11-13T08:27:42.620Z,99.90
2018-11-13T08:30:14.513Z,99.90
2018-11-13T08:32:43.901Z,99.90
2018-11-13T08:35:12.367Z,99.90
2018-11-13T08:37:47.680Z,99.90
2018-11-13T08:40:17.665Z,99.90
2018-11-13T08:42:46.715Z,99.90
2018-11-13T08:45:16.021Z,99.90
2018-11-13T08:47:44.662Z,99.90
2018-11-13T08:50:14.030Z,99.90
2018-11-13T08:52:43.410Z,99.90
2018-11-13T08:55:12.306Z,99.90
2018-11-13T08:57:40.975Z,99.90
2018-11-13T09:00:11.484Z,99.90
2018-11-13T09:02:40.676Z,99.90
2018-11-13T09:05:09.698Z,99.90
2018-11-13T09:07:38.845Z,99.90
2018-11-13T09:10:09.149Z,99.90
2018-11-13T09:12:38.076Z,99.90
2018-11-13T09:15:08.577Z,99.20
2018-11-13T09:17:37.522Z,98.80
2018-11-13T09:20:07.626Z,98.10
2018-11-13T09:22:36.438Z,97.10
2018-11-13T09:25:06.183Z,96.90
2018-11-13T09:27:34.781Z,96.60
2018-11-13T09:30:03.515Z,96.20
2018-11-13T09:32:32.133Z,95.40
2018-11-13T09:35:00.768Z,95.00
2018-11-13T09:37:29.625Z,94.60
2018-11-13T09:39:58.568Z,94.50
2018-11-13T09:42:27.248Z,93.80
2018-11-13T09:44:56.081Z,93.30
2018-11-13T09:47:24.843Z,93.00
2018-11-13T09:49:53.630Z,92.80
2018-11-13T09:52:22.272Z,91.90
2018-11-13T09:54:51.097Z,91.90
2018-11-13T09:57:19.751Z,91.30
2018-11-13T09:59:48.213Z,91.80
2018-11-13T10:02:17.486Z,92.00
2018-11-13T10:04:46.427Z,91.90
2018-11-13T10:07:14.686Z,91.50
2018-11-13T10:09:43.513Z,91.30
2018-11-13T10:12:12.029Z,91.00
2018-11-13T10:14:41.375Z,90.90
2018-11-13T10:17:10.133Z,91.30
2018-11-13T10:19:38.970Z,91.00
2018-11-13T10:22:07.413Z,90.60
2018-11-13T10:24:36.224Z,89.80
2018-11-13T10:27:05.373Z,90.40
2018-11-13T10:29:34.394Z,90.20
2018-11-13T10:32:03.084Z,89.90
2018-11-13T10:34:31.779Z,89.70
2018-11-13T10:37:00.579Z,89.90
2018-11-13T10:39:29.340Z,89.10
2018-11-13T10:41:58.106Z,89.50
2018-11-13T10:44:26.876Z,89.70
2018-11-13T10:46:55.729Z,89.50
2018-11-13T10:49:24.151Z,89.80
2018-11-13T10:51:52.592Z,88.60
2018-11-13T10:54:21.445Z,89.40
2018-11-13T10:56:49.844Z,88.30
2018-11-13T10:59:18.701Z,88.00
2018-11-13T11:01:52.900Z,88.60
2018-11-13T11:04:27.192Z,87.20
2018-11-13T11:06:55.956Z,87.60
2018-11-13T11:09:24.565Z,87.40
2018-11-13T11:11:53.294Z,87.00
2018-11-13T11:14:22.067Z,87.00
2018-11-13T11:16:51.117Z,87.00
2018-11-13T11:19:19.705Z,86.60
2018-11-13T11:21:48.145Z,85.90
2018-11-13T11:24:17.117Z,86.60
2018-11-13T11:26:45.690Z,86.20
2018-11-13T11:29:14.186Z,86.90
2018-11-13T11:31:42.841Z,87.70
2018-11-13T11:34:11.773Z,87.90
2018-11-13T11:36:40.841Z,88.40
2018-11-13T11:39:11.005Z,87.90
2018-11-13T11:41:39.688Z,88.50
2018-11-13T11:44:09.107Z,89.10
2018-11-13T11:46:38.292Z,89.80
2018-11-13T11:49:07.109Z,90.10
2018-11-13T11:51:36.032Z,90.00
2018-11-13T11:54:05.829Z,89.50
2018-11-13T11:56:34.529Z,89.50
2018-11-13T11:59:03.309Z,90.00
2018-11-13T12:01:31.938Z,89.20
2018-11-13T12:04:00.739Z,89.70
2018-11-13T12:06:29.616Z,90.00
2018-11-13T12:08:58.349Z,89.60
2018-11-13T12:11:27.004Z,89.80
2018-11-13T12:13:55.821Z,88.90
2018-11-13T12:16:24.314Z,88.80
2018-11-13T12:18:53.054Z,88.10
2018-11-13T12:21:21.784Z,88.30
2018-11-13T12:23:50.222Z,88.90
2018-11-13T12:26:19.084Z,89.50
2018-11-13T12:28:47.841Z,88.70
2018-11-13T12:31:16.276Z,88.00
2018-11-13T12:33:44.912Z,89.40
2018-11-13T12:36:13.758Z,89.90
2018-11-13T12:38:45.369Z,90.00
2018-11-13T12:41:14.185Z,90.40
2018-11-13T12:43:42.864Z,90.00
2018-11-13T12:46:11.549Z,89.40
2018-11-13T12:48:40.505Z,89.60
2018-11-13T12:51:09.328Z,90.10
2018-11-13T12:53:38.028Z,90.50
2018-11-13T12:56:06.701Z,90.40
2018-11-13T12:58:35.341Z,90.10
2018-11-13T13:01:04.000Z,90.10
2018-11-13T13:03:32.832Z,90.50
2018-11-13T13:06:01.602Z,90.40
2018-11-13T13:08:30.469Z,90.80
2018-11-13T13:10:59.338Z,91.10
2018-11-13T13:13:27.739Z,91.20
2018-11-13T13:15:56.724Z,91.40
2018-11-13T13:18:25.345Z,91.50
2018-11-13T13:20:54.153Z,91.60
2018-11-13T13:23:22.838Z,91.50
2018-11-13T13:25:51.611Z,91.70
2018-11-13T13:28:20.391Z,92.00
2018-11-13T13:30:49.429Z,92.70
2018-11-13T13:33:18.066Z,92.60
2018-11-13T13:36:04.772Z,93.00
2018-11-13T13:38:34.794Z,93.20
2018-11-13T13:41:04.273Z,93.00
2018-11-13T13:43:33.474Z,92.90
2018-11-13T13:46:02.610Z,93.50
2018-11-13T13:48:31.469Z,94.20
2018-11-13T13:51:00.490Z,94.30
2018-11-13T13:53:29.269Z,94.40
2018-11-13T13:55:58.184Z,95.00
2018-11-13T13:58:27.067Z,95.30
2018-11-13T14:00:56.791Z,95.60
2018-11-13T14:03:25.643Z,96.00
2018-11-13T14:05:54.499Z,96.40
2018-11-13T14:08:23.272Z,97.40
2018-11-13T14:10:52.218Z,97.30
2018-11-13T14:13:21.090Z,96.70
2018-11-13T14:15:50.034Z,96.30
2018-11-13T14:18:18.791Z,96.60
2018-11-13T14:20:47.363Z,96.60
2018-11-13T14:23:16.282Z,96.30
2018-11-13T14:25:45.177Z,96.70
2018-11-13T14:28:14.064Z,97.10
2018-11-13T14:30:42.834Z,97.30
2018-11-13T14:33:12.332Z,97.60
2018-11-13T14:35:41.248Z,97.80
2018-11-13T14:38:10.208Z,97.70
2018-11-13T14:40:40.214Z,98.10
2018-11-13T14:43:09.215Z,98.30
2018-11-13T14:45:37.930Z,98.40
2018-11-13T14:48:07.444Z,99.00
2018-11-13T14:50:36.852Z,99.20
2018-11-13T14:53:06.042Z,99.90
2018-11-13T14:55:36.112Z,99.90
2018-11-13T14:58:05.694Z,99.90
2018-11-13T15:00:35.481Z,99.90
2018-11-13T15:03:05.187Z,99.90
2018-11-13T15:05:34.461Z,99.90
2018-11-13T15:08:04.694Z,99.90
2018-11-13T15:10:35.775Z,99.90
2018-11-13T15:13:04.481Z,99.90
2018-11-13T15:15:33.032Z,99.90
2018-11-13T15:18:01.893Z,99.90
2018-11-13T15:20:30.589Z,99.90
2018-11-13T15:22:59.374Z,99.90
2018-11-13T15:25:27.895Z,99.90
2018-11-13T15:27:56.576Z,99.90
2018-11-13T15:30:26.744Z,99.90
2018-11-13T15:32:56.734Z,99.90
2018-11-13T15:35:25.434Z,99.90
2018-11-13T15:37:54.192Z,99.90
2018-11-13T15:40:26.289Z,99.90
2018-11-13T15:42:55.097Z,99.90
2018-11-13T15:45:23.485Z,99.90
2018-11-13T15:47:53.085Z,99.90
2018-11-13T15:50:24.171Z,99.90
2018-11-13T15:52:52.960Z,99.90
2018-11-13T15:55:21.676Z,99.90
2018-11-13T15:57:50.727Z,99.90
2018-11-13T16:00:21.747Z,99.90
2018-11-13T16:02:50.691Z,99.90
2018-11-13T16:05:26.784Z,99.90
2018-11-13T16:07:56.510Z,99.90
2018-11-13T16:10:25.570Z,99.90
2018-11-13T16:12:54.576Z,99.90
2018-11-13T16:15:24.147Z,99.90
2018-11-13T16:17:53.630Z,99.90
2018-11-13T16:20:22.429Z,99.90
2018-11-13T16:22:51.158Z,99.90
2018-11-13T16:25:19.951Z,99.90
2018-11-13T16:27:48.713Z,99.90
2018-11-13T16:30:20.027Z,99.90
2018-11-13T16:32:49.367Z,99.90
2018-11-13T16:35:19.075Z,99.90
2018-11-13T16:37:48.466Z,99.90
2018-11-13T16:40:20.864Z,99.90
2018-11-13T16:42:49.630Z,99.90
2018-11-13T16:45:19.572Z,99.90
2018-11-13T16:47:48.175Z,99.90
2018-11-13T16:50:21.375Z,99.90
2018-11-13T16:52:50.235Z,99.90
2018-11-13T16:55:24.405Z,99.90
2018-11-13T16:57:53.590Z,99.90
2018-11-13T17:00:23.097Z,99.90
2018-11-13T17:02:51.920Z,99.90
2018-11-13T17:05:21.480Z,99.90
2018-11-13T17:07:50.243Z,99.90
2018-11-13T17:10:20.213Z,99.90
2018-11-13T17:12:49.334Z,99.90
2018-11-13T17:15:20.084Z,99.90
2018-11-13T17:17:49.783Z,99.90
2018-11-13T17:20:18.681Z,99.90
2018-11-13T17:22:48.257Z,99.90
2018-11-13T17:25:22.235Z,99.90
2018-11-13T17:27:52.917Z,99.90
2018-11-13T17:30:26.377Z,99.90
2018-11-13T17:32:56.107Z,99.90
2018-11-13T17:35:25.637Z,99.90
2018-11-13T17:37:55.052Z,99.90
2018-11-13T17:40:24.915Z,99.90
2018-11-13T17:42:54.865Z,99.90
2018-11-13T17:45:27.205Z,99.90
2018-11-13T17:47:55.977Z,99.90
2018-11-13T17:50:27.042Z,99.90
2018-11-13T17:52:55.954Z,99.90
2018-11-13T17:55:25.337Z,99.90
2018-11-13T17:57:55.495Z,99.90
2018-11-13T18:07:15.193Z,99.90
2018-11-13T18:09:43.931Z,99.90
2018-11-13T18:12:12.861Z,99.90
2018-11-13T18:14:41.552Z,99.90
2018-11-13T18:17:10.338Z,99.90
2018-11-13T18:19:39.220Z,99.90
2018-11-13T18:22:08.314Z,99.90
2018-11-13T18:24:36.843Z,99.90
2018-11-13T18:27:05.755Z,99.90
2018-11-13T18:29:34.523Z,99.90
2018-11-13T18:32:03.154Z,99.90
2018-11-13T18:34:31.941Z,99.90
2018-11-13T18:37:00.689Z,99.90
2018-11-13T18:39:29.366Z,99.90
2018-11-13T18:41:58.170Z,99.90
2018-11-13T18:44:27.295Z,99.90
2018-11-13T18:46:56.061Z,99.90
2018-11-13T18:49:24.885Z,99.90
2018-11-13T18:51:53.522Z,99.90
2018-11-13T18:54:22.242Z,99.90
2018-11-13T18:56:51.125Z,99.90
2018-11-13T18:59:19.980Z,99.90
2018-11-13T19:01:48.805Z,99.90
2018-11-13T19:04:17.570Z,99.90
2018-11-13T19:06:46.273Z,99.90
2018-11-13T19:09:15.061Z,99.90
2018-11-13T19:11:43.999Z,99.90
2018-11-13T19:14:12.760Z,99.90
2018-11-13T19:16:41.654Z,99.90
2018-11-13T19:19:10.384Z,99.90
2018-11-13T19:21:39.200Z,99.90
2018-11-13T19:24:07.928Z,99.90
2018-11-13T19:26:36.599Z,99.90
2018-11-13T19:29:05.422Z,99.90
2018-11-13T19:31:34.267Z,99.90
2018-11-13T19:34:03.045Z,99.90
2018-11-13T19:36:32.003Z,99.90
2018-11-13T19:39:01.099Z,99.90
2018-11-13T19:41:30.020Z,99.90
2018-11-13T19:43:59.373Z,99.90
2018-11-13T19:46:28.948Z,99.90
2018-11-13T19:48:58.444Z,99.90
2018-11-13T19:51:28.222Z,99.90
2018-11-13T19:53:58.070Z,99.90
2018-11-13T19:56:27.397Z,99.90
2018-11-13T19:58:56.147Z,99.90
2018-11-13T20:01:25.185Z,99.90
2018-11-13T20:03:53.981Z,99.90
2018-11-13T20:06:22.810Z,99.90
2018-11-13T20:08:51.566Z,99.90
2018-11-13T20:11:20.359Z,99.90
2018-11-13T20:13:49.352Z,99.90
2018-11-13T20:16:17.928Z,99.90
2018-11-13T20:18:46.719Z,99.90
2018-11-13T20:21:15.659Z,99.90
2018-11-13T20:23:44.393Z,99.90
2018-11-13T20:26:13.241Z,99.90
2018-11-13T20:28:41.919Z,99.90
2018-11-13T20:31:10.836Z,99.90
2018-11-13T20:33:39.535Z,99.90
2018-11-13T20:36:08.282Z,99.90
2018-11-13T20:38:37.136Z,99.90
2018-11-13T20:41:06.159Z,99.90
2018-11-13T20:43:35.317Z,99.90
2018-11-13T20:46:04.161Z,99.90
2018-11-13T20:48:32.917Z,99.90
2018-11-13T20:51:01.782Z,99.90
2018-11-13T20:53:30.469Z,99.90
2018-11-13T20:55:59.401Z,99.90
2018-11-13T20:58:28.568Z,99.90
2018-11-13T21:00:57.936Z,99.90
2018-11-13T21:03:27.826Z,99.90
2018-11-13T21:05:58.206Z,99.90
2018-11-13T21:08:28.262Z,99.90
2018-11-13T21:10:59.310Z,99.90
2018-11-13T21:13:29.206Z,99.90
2018-11-13T21:15:59.527Z,99.90
2018-11-13T21:18:29.953Z,99.90
2018-11-13T21:21:00.339Z,99.90
2018-11-13T21:23:30.899Z,99.90
2018-11-13T21:26:01.545Z,99.90
2018-11-13T21:28:31.893Z,99.90
2018-11-13T21:31:00.741Z,99.90
2018-11-13T21:33:29.529Z,99.90
2018-11-13T21:35:58.425Z,99.90
2018-11-13T21:38:27.232Z,99.90
2018-11-13T21:40:56.068Z,99.90
2018-11-13T21:43:24.720Z,99.90
2018-11-13T21:45:53.432Z,99.90
2018-11-13T21:48:22.129Z,99.90
2018-11-13T21:50:51.044Z,99.90
2018-11-13T21:53:19.777Z,99.90
2018-11-13T21:55:48.509Z,99.90
2018-11-13T21:58:17.308Z,99.90
2018-11-13T22:00:48.254Z,99.90
2018-11-13T22:03:17.438Z,99.90
2018-11-13T22:05:46.438Z,99.90
2018-11-13T22:08:15.161Z,99.90
2018-11-13T22:10:43.876Z,99.90
2018-11-13T22:13:12.669Z,99.90
2018-11-13T22:15:41.463Z,99.90
2018-11-13T22:18:10.327Z,99.90
2018-11-13T22:20:43.620Z,99.90
2018-11-13T22:23:07.658Z,99.90
2018-11-13T22:25:36.405Z,99.90
2018-11-13T22:28:05.143Z,99.90
2018-11-13T22:30:34.172Z,99.90
2018-11-13T22:33:02.876Z,99.90
2018-11-13T22:35:31.864Z,99.90
2018-11-13T22:38:00.775Z,99.90
2018-11-13T22:40:29.454Z,99.90
2018-11-13T22:42:59.161Z,99.90
2018-11-13T22:45:28.929Z,99.90
2018-11-13T22:47:58.070Z,99.90
2018-11-13T22:50:30.102Z,99.90
2018-11-13T22:52:58.901Z,99.90
2018-11-13T22:55:27.525Z,99.90
2018-11-13T22:57:57.229Z,99.90
2018-11-13T23:00:36.474Z,99.90
2018-11-13T23:03:07.554Z,99.90
2018-11-13T23:05:36.294Z,99.90
2018-11-13T23:08:05.906Z,99.90
2018-11-13T23:10:34.690Z,99.90
2018-11-13T23:13:03.969Z,99.90
2018-11-13T23:15:32.555Z,99.90
2018-11-13T23:18:01.309Z,99.90
2018-11-13T23:20:30.248Z,99.90
2018-11-13T23:22:59.086Z,99.90
2018-11-13T23:25:27.765Z,99.90
2018-11-13T23:27:56.669Z,99.90
2018-11-13T23:30:26.554Z,99.90
2018-11-13T23:32:56.191Z,99.90
2018-11-13T23:35:24.898Z,99.90
2018-11-13T23:37:55.938Z,99.90
2018-11-13T23:40:25.862Z,99.90
2018-11-13T23:42:54.631Z,99.90
2018-11-13T23:45:24.349Z,99.90
2018-11-13T23:47:53.446Z,99.90
2018-11-13T23:50:22.437Z,99.90
2018-11-13T23:52:51.722Z,99.90
2018-11-13T23:55:20.488Z,99.90
2018-11-13T23:57:49.221Z,99.90
